Time;durP1;ratioP1;P1;durP2;ratioP2;P2;SDS_P1;SDS_P2;PMS_P1;PMS_P2;Temp;Humidity;BMP_temperature;BMP_pressure;BME280_temperature;BME280_humidity;BME280_pressure;Samples;Min_cycle;Max_cycle;Signal;HPM_P1;HPM_P2
2023/04/19 00:01:14;;;;;;;;;;;12.50;78.90;;;;;;5033882;28;20266;-87
2023/04/19 00:03:40;;;;;;;;;;;12.50;79.30;;;;;;5050266;28;19909;-87
2023/04/19 00:06:07;;;;;;;;;;;12.60;79.30;;;;;;5033845;28;19905;-86
2023/04/19 00:08:33;;;;;;;;;;;12.60;79.70;;;;;;5033765;28;20289;-86
2023/04/19 00:10:58;;;;;;;;;;;12.60;79.50;;;;;;5033782;28;19905;-86
2023/04/19 00:13:24;;;;;;;;;;;12.60;80.20;;;;;;5034551;28;20283;-87
2023/04/19 00:15:49;;;;;;;;;;;12.60;80.00;;;;;;5033178;28;20285;-87
2023/04/19 00:18:15;;;;;;;;;;;12.60;80.00;;;;;;5033494;28;19951;-87
2023/04/19 00:20:40;;;;;;;;;;;12.50;80.20;;;;;;5033614;28;19905;-87
2023/04/19 00:23:06;;;;;;;;;;;12.50;81.20;;;;;;5034030;28;19994;-87
2023/04/19 00:25:33;;;;;;;;;;;12.40;82.10;;;;;;5033109;28;19912;-88
2023/04/19 00:27:59;;;;;;;;;;;12.40;82.10;;;;;;5033392;28;19905;-87
2023/04/19 00:30:24;;;;;;;;;;;12.40;82.50;;;;;;5033823;28;20297;-84
2023/04/19 00:32:50;;;;;;;;;;;12.40;82.80;;;;;;5031572;28;19994;-83
2023/04/19 00:35:16;;;;;;;;;;;12.30;83.70;;;;;;5031732;28;20034;-83
2023/04/19 00:37:41;;;;;;;;;;;12.20;84.30;;;;;;5031891;28;19915;-84
2023/04/19 00:40:07;;;;;;;;;;;12.20;85.70;;;;;;5031755;28;19928;-83
2023/04/19 00:42:33;;;;;;;;;;;12.10;85.80;;;;;;5032227;28;19952;-83
2023/04/19 00:44:58;;;;;;;;;;;12.10;86.80;;;;;;5031752;28;19944;-83
2023/04/19 00:47:24;;;;;;;;;;;12.10;87.60;;;;;;5031028;28;19962;-84
2023/04/19 00:49:49;;;;;;;;;;;12.00;88.00;;;;;;5031003;28;19956;-88
2023/04/19 00:52:15;;;;;;;;;;;12.00;88.80;;;;;;5031455;28;19971;-86
2023/04/19 00:54:42;;;;;;;;;;;12.00;88.90;;;;;;5032164;28;19913;-88
2023/04/19 00:57:07;;;;;;;;;;;12.00;89.30;;;;;;5033440;28;19905;-89
2023/04/19 00:59:33;;;;;;;;;;;12.00;89.50;;;;;;5032569;28;20104;-86
2023/04/19 01:01:59;;;;;;;;;;;12.10;89.60;;;;;;5032958;28;19948;-87
2023/04/19 01:04:24;;;;;;;;;;;12.10;89.80;;;;;;5033203;28;19936;-87
2023/04/19 01:06:50;;;;;;;;;;;12.00;90.30;;;;;;5032660;28;19936;-87
2023/04/19 01:09:15;;;;;;;;;;;12.00;90.40;;;;;;5032515;28;19945;-88
2023/04/19 01:11:41;;;;;;;;;;;12.00;90.40;;;;;;5032404;28;19932;-88
2023/04/19 01:14:07;;;;;;;;;;;12.10;90.40;;;;;;5032350;28;19913;-88
2023/04/19 01:16:32;;;;;;;;;;;12.10;90.60;;;;;;5032709;28;19947;-87
2023/04/19 01:18:58;;;;;;;;;;;12.10;90.60;;;;;;5032683;28;19905;-86
2023/04/19 01:21:23;;;;;;;;;;;12.10;90.90;;;;;;5032476;28;19909;-87
2023/04/19 01:23:49;;;;;;;;;;;12.10;90.90;;;;;;5033411;28;19905;-88
2023/04/19 01:26:15;;;;;;;;;;;12.10;90.80;;;;;;5032669;28;19905;-87
2023/04/19 01:28:41;;;;;;;;;;;12.10;90.90;;;;;;5032625;28;20289;-86
2023/04/19 01:31:06;;;;;;;;;;;12.10;91.40;;;;;;5031994;28;19905;-87
2023/04/19 01:33:36;;;;;;;;;;;12.00;91.50;;;;;;5033083;28;19905;-86
2023/04/19 01:36:02;;;;;;;;;;;12.00;91.40;;;;;;5033174;28;19905;-86
2023/04/19 01:38:27;;;;;;;;;;;12.10;91.50;;;;;;5033067;28;19905;-87
2023/04/19 01:40:55;;;;;;;;;;;12.10;91.50;;;;;;5048984;28;20003;-86
2023/04/19 01:43:21;;;;;;;;;;;12.10;91.70;;;;;;5033413;28;19912;-86
2023/04/19 01:45:46;;;;;;;;;;;12.10;91.60;;;;;;5033312;28;19999;-86
2023/04/19 01:48:12;;;;;;;;;;;12.10;91.70;;;;;;5033149;28;19947;-86
2023/04/19 01:50:37;;;;;;;;;;;12.10;91.70;;;;;;5033017;28;19905;-86
2023/04/19 01:53:03;;;;;;;;;;;12.10;91.80;;;;;;5032816;28;20423;-86
2023/04/19 01:55:28;;;;;;;;;;;12.10;91.90;;;;;;5032059;28;19958;-86
2023/04/19 01:57:54;;;;;;;;;;;12.20;91.40;;;;;;5031350;28;19909;-84
2023/04/19 02:00:20;;;;;;;;;;;12.20;91.90;;;;;;5032049;28;19905;-85
2023/04/19 02:02:46;;;;;;;;;;;12.10;91.90;;;;;;5032821;28;20362;-85
2023/04/19 02:05:12;;;;;;;;;;;12.10;92.10;;;;;;5032850;28;19919;-84
2023/04/19 02:07:37;;;;;;;;;;;12.10;92.10;;;;;;5031528;28;20370;-84
2023/04/19 02:10:04;;;;;;;;;;;12.10;92.10;;;;;;5031855;28;19920;-86
2023/04/19 02:12:30;;;;;;;;;;;12.10;92.50;;;;;;5035715;28;20391;-86
2023/04/19 02:14:56;;;;;;;;;;;12.10;92.60;;;;;;5035575;28;19959;-86
2023/04/19 02:17:22;;;;;;;;;;;12.20;92.20;;;;;;5036167;28;19909;-85
2023/04/19 02:19:48;;;;;;;;;;;12.10;92.40;;;;;;5035421;28;19912;-86
2023/04/19 02:22:13;;;;;;;;;;;12.10;92.70;;;;;;5035723;28;19916;-85
2023/04/19 02:24:39;;;;;;;;;;;12.10;92.90;;;;;;5035777;28;19916;-86
2023/04/19 02:27:04;;;;;;;;;;;12.10;93.00;;;;;;5035613;28;19905;-86
2023/04/19 02:29:31;;;;;;;;;;;12.10;93.30;;;;;;5036481;28;20277;-86
2023/04/19 02:31:56;;;;;;;;;;;12.10;93.50;;;;;;5035440;28;20377;-86
2023/04/19 02:34:22;;;;;;;;;;;12.10;93.50;;;;;;5035803;28;19916;-85
2023/04/19 02:36:48;;;;;;;;;;;12.10;93.60;;;;;;5035620;28;19905;-86
2023/04/19 02:39:13;;;;;;;;;;;12.10;93.80;;;;;;5035318;28;20007;-86
2023/04/19 02:41:39;;;;;;;;;;;12.10;93.70;;;;;;5035766;28;19959;-87
2023/04/19 02:44:04;;;;;;;;;;;12.10;93.70;;;;;;5034802;28;19998;-85
2023/04/19 02:46:30;;;;;;;;;;;12.20;93.50;;;;;;5033673;28;19967;-83
2023/04/19 02:48:55;;;;;;;;;;;12.20;93.90;;;;;;5033445;28;20288;-83
2023/04/19 02:51:21;;;;;;;;;;;12.20;93.70;;;;;;5050001;28;20386;-82
2023/04/19 02:53:46;;;;;;;;;;;12.10;94.00;;;;;;5033524;28;19917;-82
2023/04/19 02:56:12;;;;;;;;;;;12.10;94.70;;;;;;5035315;28;19905;-83
2023/04/19 02:58:37;;;;;;;;;;;12.00;94.60;;;;;;5033495;28;20025;-82
2023/04/19 03:01:03;;;;;;;;;;;12.00;94.90;;;;;;5034808;28;19952;-85
2023/04/19 03:03:28;;;;;;;;;;;12.00;95.30;;;;;;5034432;28;19956;-82
2023/04/19 03:05:54;;;;;;;;;;;12.00;95.20;;;;;;5032619;28;19905;-83
2023/04/19 03:08:19;;;;;;;;;;;12.00;95.30;;;;;;5032164;28;19909;-83
2023/04/19 03:10:45;;;;;;;;;;;12.10;95.10;;;;;;5030926;28;20331;-83
2023/04/19 03:13:10;;;;;;;;;;;12.10;95.40;;;;;;5032674;28;19959;-83
2023/04/19 03:15:36;;;;;;;;;;;12.00;95.60;;;;;;5034443;28;20419;-83
2023/04/19 03:18:03;;;;;;;;;;;12.10;95.20;;;;;;5033159;28;19909;-82
2023/04/19 03:20:28;;;;;;;;;;;12.00;95.50;;;;;;5034687;28;19909;-84
2023/04/19 03:22:54;;;;;;;;;;;12.00;95.60;;;;;;5033539;28;19905;-83
2023/04/19 03:25:19;;;;;;;;;;;12.00;95.50;;;;;;5033878;28;19905;-83
2023/04/19 03:27:46;;;;;;;;;;;12.00;95.20;;;;;;5033765;28;20269;-86
2023/04/19 03:30:12;;;;;;;;;;;12.00;95.30;;;;;;5034170;28;19905;-85
2023/04/19 03:32:38;;;;;;;;;;;12.00;95.70;;;;;;5033985;28;19912;-85
2023/04/19 03:35:03;;;;;;;;;;;12.00;96.00;;;;;;5032497;28;20340;-86
2023/04/19 03:37:29;;;;;;;;;;;12.00;95.80;;;;;;5033167;28;19905;-86
2023/04/19 03:39:55;;;;;;;;;;;12.00;96.00;;;;;;5032189;28;19905;-86
2023/04/19 03:42:20;;;;;;;;;;;12.00;96.40;;;;;;5032598;28;19939;-83
2023/04/19 03:44:46;;;;;;;;;;;12.00;96.10;;;;;;5031268;28;20357;-83
2023/04/19 03:47:11;;;;;;;;;;;12.00;96.60;;;;;;5033646;28;19905;-84
2023/04/19 03:49:37;;;;;;;;;;;12.00;96.70;;;;;;5031854;28;20385;-82
2023/04/19 03:52:03;;;;;;;;;;;12.00;96.90;;;;;;5047146;28;19921;-83
2023/04/19 03:56:08;;;;;;;8.33;4.53;;;11.90;96.90;;;;;;5120285;27;20390;-84
2023/04/19 03:58:34;;;;;;;;;;;12.00;97.00;;;;;;5089182;28;20059;-85
2023/04/19 04:01:00;;;;;;;9.45;5.20;;;11.90;97.20;;;;;;5086616;28;19916;-86
2023/04/19 04:03:25;;;;;;;;;;;11.90;97.50;;;;;;5120813;28;20046;-84
2023/04/19 04:05:51;;;;;;;16.85;6.57;;;11.90;97.70;;;;;;5085942;28;19908;-84
2023/04/19 04:08:17;;;;;;;;;;;12.00;97.50;;;;;;5087991;28;20462;-85
2023/04/19 04:10:43;;;;;;;11.57;5.75;;;12.00;97.30;;;;;;5087942;28;20003;-84
2023/04/19 04:13:08;;;;;;;;;;;12.10;97.00;;;;;;5121340;28;20020;-85
2023/04/19 04:15:34;;;;;;;7.55;5.20;;;12.00;97.50;;;;;;5087206;28;20342;-86
2023/04/19 04:18:00;;;;;;;;;;;12.10;97.40;;;;;;5122475;27;20089;-85
2023/04/19 04:20:25;;;;;;;12.02;5.63;;;12.20;97.00;;;;;;5087530;28;20337;-87
2023/04/19 04:22:51;;;;;;;;;;;12.20;96.90;;;;;;5088817;28;20033;-86
2023/04/19 04:25:17;;;;;;;8.80;5.13;;;12.20;96.90;;;;;;5088199;28;20296;-86
2023/04/19 04:27:44;;;;;;;13.38;6.28;;;12.20;96.90;;;;;;5122548;28;20027;-86
2023/04/19 04:30:10;;;;;;;8.95;5.47;;;12.30;96.40;;;;;;5121800;28;20036;-86
2023/04/19 04:32:37;;;;;;;;;;;12.50;95.90;;;;;;5122857;28;20047;-87
2023/04/19 04:35:03;;;;;;;15.77;6.22;;;12.50;96.20;;;;;;5088358;28;20030;-87
2023/04/19 04:37:32;;;;;;;12.88;5.70;;;12.60;95.60;;;;;;5122247;28;20036;-86
2023/04/19 04:40:04;;;;;;;13.80;5.53;;;12.70;95.20;;;;;;5120830;27;20031;-87
2023/04/19 04:42:31;;;;;;;11.13;6.28;;;12.90;94.10;;;;;;5120621;27;20031;-85
2023/04/19 04:44:57;;;;;;;16.77;6.13;;;13.10;93.10;;;;;;5119695;27;20051;-87
2023/04/19 04:47:23;;;;;;;9.38;5.55;;;13.50;91.50;;;;;;5120598;28;20578;-86
2023/04/19 04:49:49;;;;;;;;;;;13.80;90.00;;;;;;5113555;28;20051;-86
2023/04/19 04:52:16;;;;;;;14.90;6.05;;;14.00;88.00;;;;;;5065293;28;20370;-86
2023/04/19 04:54:41;;;;;;;14.15;7.03;;;14.20;86.40;;;;;;5066454;28;20413;-86
2023/04/19 04:57:07;;;;;;;;;;;14.30;84.70;;;;;;5065798;28;20082;-88
2023/04/19 04:59:33;;;;;;;11.25;5.75;;;14.40;83.50;;;;;;5065230;28;20323;-86
2023/04/19 05:01:58;;;;;;;16.63;5.32;;;14.70;81.40;;;;;;5065502;28;20032;-86
2023/04/19 05:04:24;;;;;;;;;;;14.60;80.90;;;;;;5066564;28;20075;-86
2023/04/19 05:06:50;;;;;;;14.82;6.18;;;14.50;81.20;;;;;;5056066;28;19908;-87
2023/04/19 05:09:15;;;;;;;;;;;14.30;80.80;;;;;;5053205;28;20090;-87
2023/04/19 05:11:41;;;;;;;8.15;4.72;;;14.00;82.00;;;;;;5051472;28;20365;-85
2023/04/19 05:14:07;;;;;;;;;;;14.00;81.60;;;;;;5052116;28;20033;-84
2023/04/19 05:16:33;;;;;;;11.77;5.07;;;13.90;82.00;;;;;;5052060;28;19962;-85
2023/04/19 05:18:58;;;;;;;;;;;13.80;82.40;;;;;;5052275;28;20456;-86
2023/04/19 05:21:25;;;;;;;9.20;5.15;;;13.90;81.80;;;;;;5051991;28;19904;-85
2023/04/19 05:23:52;;;;;;;10.40;5.60;;;13.80;82.60;;;;;;5051841;28;20025;-87
2023/04/19 05:26:18;;;;;;;7.53;5.50;;;13.80;81.70;;;;;;5051291;28;20024;-85
2023/04/19 05:28:44;;;;;;;;;;;13.80;82.30;;;;;;5052768;28;20025;-86
2023/04/19 05:31:10;;;;;;;11.75;5.85;;;13.90;82.10;;;;;;5051073;28;19909;-86
2023/04/19 05:33:36;;;;;;;11.05;5.50;;;14.10;80.50;;;;;;5051120;28;20028;-85
2023/04/19 05:36:01;;;;;;;;;;;14.10;79.00;;;;;;5051602;28;20558;-86
2023/04/19 05:38:27;;;;;;;9.98;5.57;;;14.20;78.60;;;;;;5052036;28;19909;-87
2023/04/19 05:40:53;;;;;;;;;;;14.30;77.40;;;;;;5052826;28;20393;-85
2023/04/19 05:43:18;;;;;;;11.15;5.38;;;14.50;76.90;;;;;;5050912;28;19909;-86
2023/04/19 05:45:44;;;;;;;10.93;4.75;;;14.80;74.70;;;;;;5051774;28;20037;-86
2023/04/19 05:48:09;;;;;;;;;;;15.10;72.90;;;;;;5054484;28;20029;-86
2023/04/19 05:50:35;;;;;;;8.32;4.88;;;15.30;73.30;;;;;;5054357;28;19958;-86
2023/04/19 05:53:01;;;;;;;;;;;15.30;72.20;;;;;;5052166;28;20036;-85
2023/04/19 05:55:27;;;;;;;8.88;4.72;;;15.60;70.30;;;;;;5050689;28;19925;-86
2023/04/19 05:57:52;;;;;;;16.25;5.10;;;16.20;68.30;;;;;;5050818;28;20028;-87
2023/04/19 06:00:18;;;;;;;7.10;4.50;;;16.70;65.50;;;;;;5050638;28;20124;-87
2023/04/19 06:02:44;;;;;;;7.60;4.57;;;17.30;64.00;;;;;;5052655;28;20029;-86
2023/04/19 06:05:10;;;;;;;7.50;4.28;;;17.90;60.60;;;;;;5051426;28;20029;-84
2023/04/19 06:07:35;;;;;;;7.15;4.15;;;18.10;59.10;;;;;;5051827;28;20536;-86
2023/04/19 06:10:01;;;;;;;13.70;4.97;;;18.40;56.50;;;;;;5050692;28;20021;-85
2023/04/19 06:12:26;;;;;;;6.28;4.38;;;18.50;54.10;;;;;;5051282;28;20029;-84
2023/04/19 06:14:52;;;;;;;8.02;4.30;;;18.30;53.90;;;;;;5050739;28;20044;-85
2023/04/19 06:17:23;;;;;;;6.25;3.60;;;18.20;53.40;;;;;;5050277;28;20113;-85
2023/04/19 06:19:49;;;;;;;15.82;4.30;;;17.60;54.10;;;;;;5052971;28;20028;-86
2023/04/19 06:22:15;;;;;;;7.15;3.58;;;17.30;54.20;;;;;;5051495;28;20498;-84
2023/04/19 06:24:43;;;;;;;10.25;4.43;;;17.20;54.90;;;;;;5051199;28;20056;-85
2023/04/19 06:27:08;;;;;;;8.52;3.83;;;17.00;54.80;;;;;;5051314;28;20044;-85
2023/04/19 06:29:34;;;;;;;9.85;3.90;;;17.00;55.30;;;;;;5052850;28;20017;-83
2023/04/19 06:32:00;;;;;;;6.45;3.38;;;17.00;54.60;;;;;;5049720;28;20028;-85
2023/04/19 06:34:25;;;;;;;6.70;3.85;;;16.90;53.60;;;;;;5051151;28;20045;-83
2023/04/19 06:36:51;;;;;;;7.53;3.85;;;16.90;54.00;;;;;;5050331;28;20080;-87
2023/04/19 06:39:17;;;;;;;7.85;3.58;;;16.70;54.30;;;;;;5051374;28;20063;-86
2023/04/19 06:41:43;;;;;;;13.38;3.85;;;16.70;54.30;;;;;;5049724;28;20057;-88
2023/04/19 06:44:08;;;;;;;8.25;4.13;;;17.10;52.20;;;;;;5050946;28;20434;-87
2023/04/19 06:46:34;;;;;;;6.45;3.55;;;17.00;52.70;;;;;;5051874;28;20124;-87
2023/04/19 06:48:59;;;;;;;12.18;5.97;;;16.80;53.20;;;;;;5052389;28;20033;-86
2023/04/19 06:51:25;;;;;;;7.50;4.15;;;16.70;53.70;;;;;;5051452;28;20085;-86
2023/04/19 06:53:51;;;;;;;7.00;3.33;;;16.70;53.30;;;;;;5051115;28;20508;-87
2023/04/19 06:56:17;;;;;;;10.15;3.63;;;16.50;53.80;;;;;;5052259;28;20029;-87
2023/04/19 06:58:42;;;;;;;9.05;2.63;;;16.70;52.60;;;;;;5051918;28;20031;-86
2023/04/19 07:01:08;;;;;;;6.38;3.20;;;16.70;53.70;;;;;;5051817;28;20025;-85
2023/04/19 07:03:34;;;;;;;7.75;3.50;;;16.80;53.50;;;;;;5051355;28;20044;-85
2023/04/19 07:05:59;;;;;;;8.80;3.50;;;16.90;52.80;;;;;;5050599;28;20025;-86
2023/04/19 07:08:26;;;;;;;6.50;3.22;;;16.80;53.10;;;;;;5051048;28;20490;-87
2023/04/19 07:10:52;;;;;;;8.55;3.13;;;16.70;53.10;;;;;;5050345;28;20036;-86
2023/04/19 07:13:18;;;;;;;5.68;3.35;;;16.50;52.70;;;;;;5050860;28;20040;-87
2023/04/19 07:15:43;;;;;;;7.20;3.17;;;16.50;53.10;;;;;;5050691;28;20040;-87
2023/04/19 07:18:10;;;;;;;;;;;16.70;53.90;;;;;;5050418;28;20067;-86
2023/04/19 07:20:36;;;;;;;10.13;3.30;;;16.50;52.90;;;;;;5049975;28;19908;-86
2023/04/19 07:23:01;;;;;;;4.72;2.88;;;16.30;53.00;;;;;;5049463;28;20071;-87
2023/04/19 07:25:27;;;;;;;10.32;2.78;;;16.30;53.50;;;;;;5050529;28;20102;-84
2023/04/19 07:27:54;;;;;;;5.45;3.13;;;16.30;53.40;;;;;;5049264;28;20478;-86
2023/04/19 07:30:20;;;;;;;6.63;2.92;;;16.50;53.40;;;;;;5050219;28;20108;-88
2023/04/19 07:32:45;;;;;;;6.40;3.28;;;16.80;53.30;;;;;;5050035;28;20145;-87
2023/04/19 07:35:11;;;;;;;6.93;3.05;;;17.00;52.70;;;;;;5049273;28;20516;-88
2023/04/19 07:37:37;;;;;;;10.27;5.32;;;17.20;52.70;;;;;;5050269;28;20032;-83
2023/04/19 07:40:04;;;;;;;13.48;6.90;;;17.60;51.70;;;;;;5050603;28;20032;-83
2023/04/19 07:42:33;;;;;;;8.48;4.25;;;17.80;51.00;;;;;;5049845;28;20025;-85
2023/04/19 07:44:59;;;;;;;6.00;3.03;;;18.50;49.30;;;;;;5083052;28;20056;-86
2023/04/19 07:47:24;;;;;;;5.82;2.88;;;18.80;48.40;;;;;;5051366;28;20025;-85
2023/04/19 07:49:51;;;;;;;8.68;3.53;;;19.10;46.50;;;;;;5049723;28;20025;-85
2023/04/19 07:52:17;;;;;;;6.68;3.17;;;18.70;46.40;;;;;;5049644;28;20028;-86
2023/04/19 07:54:43;;;;;;;7.68;2.95;;;18.30;48.20;;;;;;5050453;28;20076;-83
2023/04/19 07:57:08;;;;;;;5.72;3.22;;;18.20;49.10;;;;;;5052348;28;20492;-85
2023/04/19 07:59:34;;;;;;;6.43;3.10;;;18.00;48.70;;;;;;5050998;28;20021;-85
2023/04/19 08:02:00;;;;;;;7.00;2.80;;;18.00;48.20;;;;;;5050318;28;20524;-85
2023/04/19 08:04:25;;;;;;;10.55;3.15;;;17.90;47.90;;;;;;5050572;28;20029;-85
2023/04/19 08:06:51;;;;;;;7.82;3.00;;;17.70;47.90;;;;;;5051234;28;20017;-86
2023/04/19 08:09:18;;;;;;;7.25;3.15;;;17.70;48.80;;;;;;5050714;28;20036;-85
2023/04/19 08:11:43;;;;;;;9.45;2.90;;;17.80;47.90;;;;;;5050559;28;20513;-84
2023/04/19 08:14:09;;;;;;;5.15;2.33;;;17.70;47.80;;;;;;5049664;28;20032;-85
2023/04/19 08:16:35;;;;;;;7.05;3.85;;;17.50;49.00;;;;;;5050418;28;20033;-85
2023/04/19 08:19:01;;;;;;;7.57;3.20;;;17.40;49.10;;;;;;5084697;28;20029;-84
2023/04/19 08:21:27;;;;;;;6.95;2.97;;;17.30;49.60;;;;;;5050055;28;20086;-86
2023/04/19 08:23:53;;;;;;;4.45;2.30;;;17.20;49.60;;;;;;5050478;28;20507;-85
2023/04/19 08:26:18;;;;;;;9.18;2.75;;;17.30;49.70;;;;;;5051135;28;20025;-86
2023/04/19 08:28:44;;;;;;;6.53;2.67;;;17.20;50.40;;;;;;5051159;28;20033;-86
2023/04/19 08:31:10;;;;;;;13.32;3.05;;;17.30;49.40;;;;;;5051235;28;20029;-86
2023/04/19 08:33:36;;;;;;;8.07;2.83;;;17.40;49.70;;;;;;5050990;28;20493;-86
2023/04/19 08:36:01;;;;;;;5.18;3.03;;;17.40;50.30;;;;;;5050224;28;20037;-89
2023/04/19 08:38:27;;;;;;;8.07;3.33;;;17.60;48.60;;;;;;5050195;28;20021;-85
2023/04/19 08:40:56;;;;;;;7.95;2.88;;;17.50;48.80;;;;;;5050768;28;20029;-85
2023/04/19 08:43:27;;;;;;;4.78;2.67;;;17.70;48.50;;;;;;5053870;28;20029;-86
2023/04/19 08:45:54;;;;;;;6.97;2.92;;;17.60;47.90;;;;;;5054385;28;20491;-84
2023/04/19 08:48:21;;;;;;;8.90;2.78;;;17.70;48.30;;;;;;5087271;28;20048;-84
2023/04/19 08:50:48;;;;;;;7.65;2.85;;;18.10;48.40;;;;;;5087999;28;20555;-84
2023/04/19 08:53:15;;;;;;;9.77;3.10;;;18.50;45.80;;;;;;5054041;28;20021;-85
2023/04/19 08:55:42;;;;;;;4.28;2.45;;;18.70;47.30;;;;;;5053843;28;20467;-85
2023/04/19 08:58:08;;;;;;;9.07;2.50;;;18.80;45.00;;;;;;5054115;28;20045;-85
2023/04/19 09:00:40;;;;;;;7.80;2.85;;;19.00;44.90;;;;;;5054160;28;20052;-84
2023/04/19 09:03:10;;;;;;;6.53;2.13;;;19.10;43.30;;;;;;5053531;28;20025;-83
2023/04/19 09:05:35;;;;;;;5.75;1.98;;;19.10;45.20;;;;;;5053581;28;20025;-84
2023/04/19 09:08:22;;;;;;;4.85;2.80;;;19.40;45.40;;;;;;5053579;28;20032;-85
2023/04/19 09:11:01;;;;;;;6.13;3.10;;;19.90;44.50;;;;;;5054301;28;20111;-86
2023/04/19 09:13:28;;;;;;;10.43;3.58;;;20.20;43.00;;;;;;5052932;28;20524;-85
2023/04/19 09:15:55;;;;;;;8.32;3.38;;;21.00;42.20;;;;;;5085301;28;20075;-84
2023/04/19 09:18:25;;;;;;;14.60;3.75;;;21.50;40.00;;;;;;5052128;28;20025;-86
2023/04/19 09:20:58;;;;;;;4.07;2.30;;;21.60;39.30;;;;;;5051306;28;20033;-85
2023/04/19 09:23:25;;;;;;;4.72;2.17;;;21.60;39.10;;;;;;5051610;28;20098;-85
2023/04/19 09:25:57;;;;;;;7.80;4.35;;;21.20;39.20;;;;;;5052542;28;20029;-85
2023/04/19 09:28:23;;;;;;;5.13;2.60;;;21.10;38.60;;;;;;5053021;28;20064;-84
2023/04/19 09:30:49;;;;;;;8.40;2.50;;;20.90;36.80;;;;;;5052790;28;20017;-84
2023/04/19 09:33:32;;;;;;;14.13;8.82;;;20.60;38.90;;;;;;5052800;28;20049;-85
2023/04/19 09:35:59;;;;;;;3.40;2.20;;;20.20;39.40;;;;;;5052699;28;20416;-85
2023/04/19 09:38:25;;;;;;;9.10;2.10;;;20.00;38.20;;;;;;5052437;28;20537;-85
2023/04/19 09:40:51;;;;;;;5.10;1.88;;;19.70;38.10;;;;;;5052985;28;20032;-84
2023/04/19 09:43:26;;;;;;;7.65;2.45;;;19.70;40.10;;;;;;5052869;28;20485;-84
2023/04/19 09:45:52;;;;;;;10.18;2.17;;;19.60;38.90;;;;;;5052310;28;20056;-85
2023/04/19 09:48:18;;;;;;;3.75;2.20;;;19.50;39.10;;;;;;5052899;28;20075;-83
2023/04/19 09:50:57;;;;;;;6.85;2.85;;;19.50;39.30;;;;;;5052581;28;20123;-85
2023/04/19 09:53:24;;;;;;;4.82;1.85;;;19.60;39.50;;;;;;5053509;28;20021;-86
2023/04/19 09:55:51;;;;;;;7.15;2.35;;;19.70;38.90;;;;;;5051823;28;20060;-85
2023/04/19 09:58:18;;;;;;;6.22;2.50;;;19.70;38.80;;;;;;5052014;28;20027;-86
2023/04/19 10:00:49;;;;;;;5.00;1.85;;;19.80;39.30;;;;;;5052993;28;20090;-85
2023/04/19 10:03:16;;;;;;;4.65;1.92;;;19.70;39.60;;;;;;5052533;28;20031;-85
2023/04/19 10:05:42;;;;;;;3.55;1.80;;;19.90;39.60;;;;;;5053055;28;20374;-86
2023/04/19 10:08:09;;;;;;;7.90;2.20;;;20.20;38.80;;;;;;5052481;28;20076;-86
2023/04/19 10:10:36;;;;;;;4.78;2.08;;;20.50;39.70;;;;;;5050461;28;20040;-87
2023/04/19 10:13:05;;;;;;;6.40;1.90;;;20.70;35.60;;;;;;5050576;28;20029;-86
2023/04/19 10:15:32;;;;;;;8.60;2.55;;;20.90;36.60;;;;;;5051419;28;20513;-85
2023/04/19 10:17:58;;;;;;;4.53;2.33;;;20.90;35.60;;;;;;5052033;28;20115;-85
2023/04/19 10:20:31;;;;;;;8.07;2.25;;;20.80;36.10;;;;;;5052580;28;20056;-85
2023/04/19 10:22:58;;;;;;;7.35;2.00;;;20.90;34.60;;;;;;5052363;28;20025;-86
2023/04/19 10:25:30;;;;;;;4.05;2.08;;;20.70;34.80;;;;;;5052017;28;20028;-85
2023/04/19 10:27:56;;;;;;;5.43;2.20;;;20.60;35.80;;;;;;5051027;28;20393;-84
2023/04/19 10:30:23;;;;;;;6.63;2.88;;;20.80;35.20;;;;;;5051974;28;20108;-85
2023/04/19 10:32:57;;;;;;;3.88;1.83;;;20.70;35.80;;;;;;5050972;28;20440;-85
2023/04/19 10:35:28;;;;;;;4.32;1.98;;;20.70;35.70;;;;;;5085645;28;20417;-85
2023/04/19 10:38:11;;;;;;;5.70;1.63;;;20.70;34.80;;;;;;5050045;28;20020;-86
2023/04/19 10:41:02;;;;;;;5.28;1.40;;;21.20;36.50;;;;;;5050491;28;20036;-86
2023/04/19 10:43:35;;;;;;;3.85;2.20;;;21.60;35.30;;;;;;5050489;28;20032;-85
2023/04/19 10:46:30;;;;;;;5.18;2.05;;;21.80;33.70;;;;;;5051039;28;20029;-84
2023/04/19 10:48:57;;;;;;;6.00;2.40;;;21.60;33.00;;;;;;5044702;28;20041;-86
2023/04/19 10:51:31;;;;;;;5.13;2.55;;;21.70;36.40;;;;;;5051317;28;20279;-86
2023/04/19 10:53:58;;;;;;;5.28;2.15;;;21.60;34.90;;;;;;5050692;28;20049;-86
2023/04/19 10:56:33;;;;;;;8.35;2.20;;;21.20;35.80;;;;;;5050580;28;20033;-86
2023/04/19 10:59:09;;;;;;;3.30;2.33;;;21.10;36.80;;;;;;5050397;28;20023;-85
2023/04/19 11:01:53;;;;;;;8.00;2.40;;;21.00;38.40;;;;;;5049522;28;20071;-85
2023/04/19 11:04:29;;;;;;;8.20;2.40;;;21.10;38.60;;;;;;5050421;28;20052;-84
2023/04/19 11:07:01;;;;;;;7.53;2.33;;;21.10;36.90;;;;;;5050502;28;20032;-86
2023/04/19 11:09:28;;;;;;;6.18;2.42;;;20.80;35.70;;;;;;5049299;28;20036;-85
2023/04/19 11:12:07;;;;;;;12.15;2.47;;;20.40;36.70;;;;;;5048884;28;20048;-86
2023/04/19 11:15:02;;;;;;;4.63;1.98;;;20.30;38.00;;;;;;5050093;28;20040;-85
2023/04/19 11:17:30;;;;;;;5.55;2.15;;;20.50;38.70;;;;;;5047683;28;20569;-86
2023/04/19 11:19:58;;;;;;;8.40;2.35;;;20.60;38.10;;;;;;5052071;28;20031;-86
2023/04/19 11:22:44;;;;;;;5.03;2.13;;;20.50;38.30;;;;;;5050852;28;20258;-85
2023/04/19 11:25:11;;;;;;;10.77;2.65;;;20.60;37.50;;;;;;5051323;28;20563;-85
2023/04/19 11:27:41;;;;;;;6.10;2.45;;;20.40;37.80;;;;;;5051680;28;20124;-86
2023/04/19 11:30:13;;;;;;;6.70;2.50;;;20.20;38.70;;;;;;5050449;28;20049;-85
2023/04/19 11:33:05;;;;;;;5.57;2.70;;;20.00;38.20;;;;;;5051174;28;20035;-86
2023/04/19 11:35:30;;;;;;;6.15;3.15;;;19.90;40.10;;;;;;5048519;28;20083;-86
2023/04/19 11:37:58;;;;;;;7.75;2.55;;;19.40;39.80;;;;;;5051509;28;20060;-86
2023/04/19 11:40:25;;;;;;;6.22;2.55;;;19.20;38.40;;;;;;5050937;28;20616;-85
2023/04/19 11:42:55;;;;;;;11.05;3.05;;;18.90;39.30;;;;;;5050869;28;20055;-85
2023/04/19 11:45:28;;;;;;;5.38;2.75;;;18.70;41.20;;;;;;5051154;28;20025;-85
2023/04/19 11:47:54;;;;;;;5.75;2.83;;;18.60;42.30;;;;;;5050269;28;20048;-84
2023/04/19 11:50:38;;;;;;;5.88;2.22;;;18.70;42.50;;;;;;5049362;28;20021;-85
2023/04/19 11:53:13;;;;;;;7.07;2.95;;;18.70;42.00;;;;;;5050644;28;20064;-85
2023/04/19 11:55:49;;;;;;;5.28;2.33;;;18.60;42.50;;;;;;5049719;28;20127;-85
2023/04/19 11:58:47;;;;;;;5.80;2.72;;;18.50;41.80;;;;;;5049197;28;20079;-83
2023/04/19 12:01:19;;;;;;;9.30;2.97;;;18.30;42.80;;;;;;5051105;28;20021;-84
2023/04/19 12:03:49;;;;;;;5.50;3.33;;;18.30;46.50;;;;;;5049259;28;20393;-84
2023/04/19 12:06:27;;;;;;;8.73;3.85;;;18.00;48.90;;;;;;5048914;28;20500;-85
2023/04/19 12:08:55;;;;;;;9.65;3.63;;;17.60;50.30;;;;;;5048280;28;20116;-84
2023/04/19 12:11:23;;;;;;;8.20;3.75;;;17.60;50.70;;;;;;5048606;28;20640;-85
2023/04/19 12:14:10;;;;;;;8.15;3.33;;;17.50;50.80;;;;;;5049400;28;20406;-83
2023/04/19 12:16:36;;;;;;;13.18;3.90;;;17.60;52.40;;;;;;5051414;28;20041;-85
2023/04/19 12:19:13;;;;;;;12.35;3.92;;;17.30;56.00;;;;;;5053506;28;20405;-84
2023/04/19 12:21:38;;;;;;;9.23;4.00;;;17.20;57.20;;;;;;5054006;28;20056;-84
2023/04/19 12:24:04;;;;;;;7.90;3.95;;;17.10;57.90;;;;;;5052756;28;20554;-83
2023/04/19 12:26:31;;;;;;;8.90;3.67;;;17.00;58.10;;;;;;5053680;28;20175;-84
2023/04/19 12:28:59;;;;;;;7.30;3.88;;;16.90;58.60;;;;;;5052807;28;20021;-82
2023/04/19 12:31:25;;;;;;;8.90;3.83;;;16.70;59.50;;;;;;5051807;28;20553;-85
2023/04/19 12:33:52;;;;;;;10.45;4.00;;;16.70;60.30;;;;;;5052313;28;20057;-85
2023/04/19 12:36:17;;;;;;;12.55;6.30;;;16.70;60.00;;;;;;5053919;28;20044;-86
2023/04/19 12:38:43;;;;;;;7.10;3.92;;;16.70;60.50;;;;;;5053753;28;20021;-85
2023/04/19 12:41:09;;;;;;;8.50;3.78;;;16.60;61.90;;;;;;5052046;28;20068;-85
2023/04/19 12:43:35;;;;;;;11.65;3.72;;;16.60;62.00;;;;;;5053268;28;20025;-85
2023/04/19 12:46:01;;;;;;;8.77;3.63;;;16.60;61.20;;;;;;5053548;28;20082;-85
2023/04/19 12:48:27;;;;;;;;;;;16.70;62.50;;;;;;5053787;28;20044;-84
2023/04/19 12:50:53;;;;;;;5.00;3.78;;;16.70;63.30;;;;;;5052594;28;19995;-83
2023/04/19 12:53:20;;;;;;;7.95;3.70;;;16.60;61.90;;;;;;5052982;28;20044;-85
2023/04/19 12:55:46;;;;;;;7.05;4.13;;;16.80;62.50;;;;;;5051280;28;20147;-84
2023/04/19 12:58:13;;;;;;;12.02;3.72;;;16.90;61.80;;;;;;5053556;28;20025;-85
2023/04/19 13:00:38;;;;;;;7.38;3.92;;;16.80;62.70;;;;;;5053613;28;20032;-85
2023/04/19 13:03:04;;;;;;;5.40;3.47;;;16.80;63.60;;;;;;5053172;28;20393;-84
2023/04/19 13:05:30;;;;;;;9.68;3.95;;;16.90;63.00;;;;;;5053661;28;20465;-83
2023/04/19 13:07:55;;;;;;;6.60;3.80;;;17.00;62.80;;;;;;5053461;28;20029;-85
2023/04/19 13:10:21;;;;;;;11.15;3.63;;;16.90;62.70;;;;;;5055126;28;20116;-85
2023/04/19 13:12:47;;;;;;;10.00;5.07;;;16.90;63.50;;;;;;5053613;28;20025;-86
2023/04/19 13:15:12;;;;;;;;;;;16.80;63.90;;;;;;5054560;28;20041;-85
2023/04/19 13:17:38;;;;;;;11.13;3.55;;;17.00;63.60;;;;;;5051719;28;20370;-85